Time;durP1;ratioP1;P1;durP2;ratioP2;P2;SDS_P1;SDS_P2;PMS_P1;PMS_P2;Temp;Humidity;BMP_temperature;BMP_pressure;BME280_temperature;BME280_humidity;BME280_pressure;Samples;Min_cycle;Max_cycle;Signal;HPM_P1;HPM_P2
2023/03/05 00:02:05;;;;;;;3.77;1.27;;;2.90;99.90;;;;;;5015472;28;20654;-64
2023/03/05 00:04:32;;;;;;;6.13;1.20;;;2.90;99.90;;;;;;4988693;28;20434;-64
2023/03/05 00:06:59;;;;;;;10.40;1.70;;;2.90;99.90;;;;;;5007319;28;20353;-64
2023/03/05 00:09:26;;;;;;;5.90;1.73;;;2.90;99.90;;;;;;5020400;28;20224;-64
2023/03/05 00:11:53;;;;;;;2.57;0.83;;;2.90;99.90;;;;;;5011546;28;20319;-64
2023/03/05 00:14:19;;;;;;;3.97;1.33;;;2.90;99.90;;;;;;5004507;28;20295;-64
2023/03/05 00:16:48;;;;;;;3.73;1.10;;;2.90;99.90;;;;;;5016451;28;20841;-64
2023/03/05 00:19:14;;;;;;;1.17;0.73;;;2.80;99.90;;;;;;5010920;28;20294;-65
2023/03/05 00:21:42;;;;;;;4.47;0.97;;;2.70;99.90;;;;;;5001642;28;20290;-64
2023/03/05 00:24:12;;;;;;;9.00;1.63;;;2.70;99.90;;;;;;5028378;28;20290;-64
2023/03/05 00:26:39;;;;;;;7.77;1.70;;;2.70;99.90;;;;;;5008425;28;20620;-65
2023/03/05 00:29:07;;;;;;;1.13;0.87;;;2.70;99.90;;;;;;5025961;28;20234;-64
2023/03/05 00:31:35;;;;;;;1.50;0.80;;;2.80;99.90;;;;;;4998782;28;20292;-65
2023/03/05 00:34:06;;;;;;;7.77;1.27;;;2.80;99.90;;;;;;5026958;28;20316;-64
2023/03/05 00:36:33;;;;;;;4.83;1.20;;;2.90;99.90;;;;;;4993230;28;20318;-65
2023/03/05 00:39:01;;;;;;;3.00;1.27;;;2.70;99.90;;;;;;5021219;28;22456;-64
2023/03/05 00:41:28;;;;;;;7.80;1.10;;;2.70;99.90;;;;;;5007841;28;20386;-65
2023/03/05 00:43:55;;;;;;;3.30;1.10;;;2.80;99.90;;;;;;5024885;28;20222;-65
2023/03/05 00:46:22;;;;;;;1.20;0.80;;;2.60;99.90;;;;;;5002693;28;20213;-65
2023/03/05 00:48:49;;;;;;;6.87;1.30;;;2.60;99.90;;;;;;5019893;28;20987;-64
2023/03/05 00:51:17;;;;;;;1.97;0.80;;;2.50;99.90;;;;;;4993423;28;20300;-65
2023/03/05 00:53:44;;;;;;;4.03;1.27;;;2.60;99.90;;;;;;5017338;28;20364;-64
2023/03/05 00:56:11;;;;;;;2.43;1.00;;;2.50;99.90;;;;;;5023045;28;20224;-64
2023/03/05 00:58:38;;;;;;;5.50;1.10;;;2.50;99.90;;;;;;5008891;28;20355;-65
2023/03/05 01:01:05;;;;;;;4.63;1.40;;;2.50;99.90;;;;;;4997001;28;20210;-64
2023/03/05 01:03:34;;;;;;;1.20;1.00;;;2.40;99.90;;;;;;5005315;28;20205;-64
2023/03/05 01:06:03;;;;;;;3.43;1.30;;;2.50;99.90;;;;;;5022302;28;20903;-64
2023/03/05 01:08:32;;;;;;;4.13;1.00;;;2.50;99.90;;;;;;4992084;28;20427;-64
2023/03/05 01:10:58;;;;;;;1.67;0.97;;;2.40;99.90;;;;;;5022284;28;20229;-65
2023/03/05 01:13:25;;;;;;;3.13;0.90;;;2.40;99.90;;;;;;5010904;28;20208;-64
2023/03/05 01:15:52;;;;;;;3.60;0.60;;;2.50;99.90;;;;;;5000666;28;20676;-65
2023/03/05 01:18:20;;;;;;;5.87;0.80;;;2.50;99.90;;;;;;5020925;28;20268;-64
2023/03/05 01:20:47;;;;;;;4.27;1.20;;;2.50;99.90;;;;;;5019809;28;20213;-65
2023/03/05 01:23:14;;;;;;;3.47;1.00;;;2.50;99.90;;;;;;4989209;28;20528;-64
2023/03/05 01:25:43;;;;;;;3.07;1.07;;;2.50;99.90;;;;;;5008583;28;20562;-65
2023/03/05 01:28:09;;;;;;;1.50;0.80;;;2.60;99.90;;;;;;5008032;28;20449;-65
2023/03/05 01:30:37;;;;;;;3.47;1.30;;;2.60;99.90;;;;;;5021554;28;20607;-64
2023/03/05 01:33:04;;;;;;;4.00;1.27;;;2.50;99.90;;;;;;5004931;28;20209;-65
2023/03/05 01:35:30;;;;;;;1.40;0.83;;;2.50;99.90;;;;;;5022894;28;20205;-64
2023/03/05 01:37:57;;;;;;;2.63;1.20;;;2.50;99.90;;;;;;5003148;28;20636;-65
2023/03/05 01:40:26;;;;;;;3.30;0.97;;;2.50;99.90;;;;;;5013228;28;20227;-64
2023/03/05 01:42:59;;;;;;;1.90;0.97;;;2.40;99.90;;;;;;5023785;28;20201;-65
2023/03/05 01:45:26;;;;;;;3.47;1.10;;;2.40;99.90;;;;;;5012134;28;20640;-64
2023/03/05 01:47:53;;;;;;;2.00;1.30;;;2.40;99.90;;;;;;5008703;28;20201;-64
2023/03/05 01:50:23;;;;;;;1.80;1.10;;;2.40;99.90;;;;;;5024925;28;20232;-64
2023/03/05 01:52:57;;;;;;;4.40;1.03;;;2.40;99.90;;;;;;5022206;28;20677;-64
2023/03/05 01:55:27;;;;;;;8.83;1.27;;;2.50;99.90;;;;;;4990825;28;20869;-64
2023/03/05 01:57:59;;;;;;;6.07;1.23;;;2.40;99.90;;;;;;5019875;28;20201;-64
2023/03/05 02:00:29;;;;;;;6.87;1.60;;;2.40;99.90;;;;;;5009912;28;20208;-64
2023/03/05 02:03:01;;;;;;;1.53;0.90;;;2.50;99.90;;;;;;4999886;28;20216;-64
2023/03/05 02:05:31;;;;;;;1.03;0.63;;;2.40;99.90;;;;;;5025715;28;20569;-64
2023/03/05 02:07:59;;;;;;;2.77;1.10;;;2.50;99.90;;;;;;5020258;28;20201;-64
2023/03/05 02:10:29;;;;;;;2.30;0.90;;;2.40;99.90;;;;;;4995396;28;20229;-64
2023/03/05 02:13:00;;;;;;;12.23;1.63;;;2.40;99.90;;;;;;5024101;28;20209;-64
2023/03/05 02:15:28;;;;;;;1.53;1.00;;;2.40;99.90;;;;;;5009037;28;20698;-64
2023/03/05 02:17:55;;;;;;;1.87;1.10;;;2.40;99.90;;;;;;5006677;28;20205;-64
2023/03/05 02:20:24;;;;;;;3.70;1.00;;;2.30;99.90;;;;;;5028936;28;20206;-65
2023/03/05 02:22:52;;;;;;;1.97;0.60;;;2.30;99.90;;;;;;5028769;28;20201;-64
2023/03/05 02:25:21;;;;;;;1.80;0.83;;;2.30;99.90;;;;;;4999447;28;21002;-65
2023/03/05 02:27:54;;;;;;;1.37;0.83;;;2.50;99.90;;;;;;5026951;28;20201;-64
2023/03/05 02:30:21;;;;;;;5.20;1.23;;;2.30;99.90;;;;;;5013288;28;20227;-64
2023/03/05 02:32:49;;;;;;;2.73;0.70;;;2.30;99.90;;;;;;4998227;28;20235;-65
2023/03/05 02:35:15;;;;;;;3.40;0.90;;;2.30;99.90;;;;;;5013616;28;20728;-65
2023/03/05 02:37:42;;;;;;;5.67;1.20;;;2.30;99.90;;;;;;5019980;28;20716;-65
2023/03/05 02:40:13;;;;;;;4.40;1.33;;;2.30;99.90;;;;;;4992463;28;20234;-65
2023/03/05 02:42:41;;;;;;;1.80;0.70;;;2.30;99.90;;;;;;5020643;28;20192;-64
2023/03/05 02:45:09;;;;;;;4.07;0.90;;;2.30;99.90;;;;;;5019768;28;20220;-65
2023/03/05 02:47:36;;;;;;;6.13;1.17;;;2.30;99.90;;;;;;5009577;28;20212;-65
2023/03/05 02:50:03;;;;;;;4.37;1.03;;;2.40;99.90;;;;;;5005336;28;20230;-65
2023/03/05 02:52:31;;;;;;;1.73;1.40;;;2.40;99.90;;;;;;5021492;28;20205;-65
2023/03/05 02:54:57;;;;;;;1.30;0.67;;;2.40;99.90;;;;;;5017968;28;20400;-65
2023/03/05 02:57:26;;;;;;;3.10;0.90;;;2.40;99.90;;;;;;4994536;28;20218;-65
2023/03/05 02:59:54;;;;;;;2.47;0.87;;;2.40;99.90;;;;;;5022835;28;20204;-65
2023/03/05 03:02:21;;;;;;;1.37;0.50;;;2.50;99.90;;;;;;5002078;28;20224;-65
2023/03/05 03:04:48;;;;;;;2.27;0.70;;;2.50;99.90;;;;;;5004492;28;20197;-65
2023/03/05 03:07:15;;;;;;;2.07;0.93;;;2.50;99.90;;;;;;5020386;28;20203;-64
2023/03/05 03:09:42;;;;;;;2.87;0.80;;;2.40;99.90;;;;;;5018712;28;20558;-65
2023/03/05 03:12:11;;;;;;;2.50;0.90;;;2.40;99.90;;;;;;4996422;28;20746;-64
2023/03/05 03:14:41;;;;;;;2.00;0.93;;;2.40;99.90;;;;;;5019184;28;20407;-64
2023/03/05 03:17:09;;;;;;;2.57;1.07;;;2.30;99.90;;;;;;5011902;28;20207;-64
2023/03/05 03:19:37;;;;;;;1.90;0.67;;;2.30;99.90;;;;;;5006332;28;20220;-64
2023/03/05 03:22:04;;;;;;;1.07;0.70;;;2.20;99.90;;;;;;5025228;28;20293;-64
2023/03/05 03:24:32;;;;;;;0.93;0.70;;;2.20;99.90;;;;;;5011575;28;20284;-65
2023/03/05 03:26:59;;;;;;;1.20;0.80;;;2.20;99.90;;;;;;4997048;28;20239;-64
2023/03/05 03:29:26;;;;;;;4.03;1.07;;;2.20;99.90;;;;;;5030677;28;20199;-64
2023/03/05 03:31:54;;;;;;;4.50;1.00;;;2.30;99.90;;;;;;5015608;28;20620;-65
2023/03/05 03:34:21;;;;;;;3.00;1.20;;;2.30;99.90;;;;;;5027649;28;20205;-65
2023/03/05 03:36:50;;;;;;;5.93;1.20;;;2.30;99.90;;;;;;5005137;28;20200;-65
2023/03/05 03:39:17;;;;;;;2.03;1.13;;;2.30;99.90;;;;;;5019563;28;20263;-65
2023/03/05 03:41:46;;;;;;;5.17;1.00;;;2.30;99.90;;;;;;5001145;28;20204;-65
2023/03/05 03:44:13;;;;;;;3.67;1.57;;;2.30;99.90;;;;;;5025440;28;20234;-64
2023/03/05 03:46:43;;;;;;;1.60;0.83;;;2.30;99.90;;;;;;5019930;28;20206;-65
2023/03/05 03:49:15;;;;;;;3.70;1.30;;;2.30;99.90;;;;;;5015813;28;20674;-65
2023/03/05 03:51:42;;;;;;;6.87;1.00;;;2.20;99.90;;;;;;5003272;28;20229;-65
2023/03/05 03:54:09;;;;;;;2.67;0.73;;;2.20;99.90;;;;;;5019582;28;20194;-65
2023/03/05 03:56:36;;;;;;;2.40;0.87;;;2.20;99.90;;;;;;4997284;28;20200;-65
2023/03/05 03:59:03;;;;;;;1.70;0.97;;;2.10;99.90;;;;;;5010500;28;20212;-64
2023/03/05 04:01:30;;;;;;;3.77;0.97;;;2.10;99.90;;;;;;5010001;28;20674;-64
2023/03/05 04:03:56;;;;;;;4.57;1.20;;;2.10;99.90;;;;;;5003161;28;20468;-65
2023/03/05 04:06:24;;;;;;;3.57;1.47;;;2.10;99.90;;;;;;5004960;28;20240;-65
2023/03/05 04:08:51;;;;;;;4.93;1.27;;;2.10;99.90;;;;;;5020312;28;20203;-64
2023/03/05 04:11:19;;;;;;;4.73;1.23;;;2.10;99.90;;;;;;5022877;28;20234;-64
2023/03/05 04:13:46;;;;;;;3.67;0.90;;;2.10;99.90;;;;;;4990209;28;20212;-64
2023/03/05 04:16:14;;;;;;;5.43;1.07;;;2.10;99.90;;;;;;5012903;28;20203;-65
2023/03/05 04:18:41;;;;;;;2.10;1.10;;;2.10;99.90;;;;;;5007856;28;20223;-65
2023/03/05 04:21:08;;;;;;;4.73;1.00;;;2.20;99.90;;;;;;5025475;28;20197;-65
2023/03/05 04:23:36;;;;;;;1.07;0.87;;;2.20;99.90;;;;;;5006255;28;20214;-65
2023/03/05 04:26:04;;;;;;;1.63;0.90;;;2.20;99.90;;;;;;5021708;28;20196;-65
2023/03/05 04:28:31;;;;;;;3.93;1.30;;;2.20;99.90;;;;;;5015724;28;20200;-64
2023/03/05 04:30:58;;;;;;;4.80;0.93;;;2.20;99.90;;;;;;5000813;28;20233;-64
2023/03/05 04:33:24;;;;;;;5.33;1.17;;;2.20;99.90;;;;;;5019761;28;20202;-64
2023/03/05 04:35:52;;;;;;;2.93;0.83;;;2.30;99.90;;;;;;5010014;28;20324;-64
2023/03/05 04:38:18;;;;;;;2.17;0.73;;;2.30;99.90;;;;;;5005016;28;20220;-65
2023/03/05 04:40:47;;;;;;;6.80;1.23;;;2.20;99.90;;;;;;5016931;28;20671;-65
2023/03/05 04:43:14;;;;;;;2.13;0.97;;;2.20;99.90;;;;;;5029058;28;20216;-64
2023/03/05 04:45:41;;;;;;;1.23;0.90;;;2.20;99.90;;;;;;4991330;28;20700;-64
2023/03/05 04:48:08;;;;;;;1.73;0.97;;;2.10;99.90;;;;;;5025204;28;20320;-64
2023/03/05 04:50:35;;;;;;;3.57;0.77;;;2.10;99.90;;;;;;5011095;28;20287;-64
2023/03/05 04:53:02;;;;;;;4.07;1.10;;;2.20;99.90;;;;;;5001146;28;20552;-65
2023/03/05 04:55:29;;;;;;;2.60;0.83;;;2.70;99.90;;;;;;5023652;28;20209;-64
2023/03/05 04:57:57;;;;;;;2.10;0.77;;;2.20;99.90;;;;;;5019040;28;20583;-64
2023/03/05 05:00:24;;;;;;;1.40;0.87;;;2.20;99.90;;;;;;5013105;28;20212;-64
2023/03/05 05:02:53;;;;;;;1.87;0.57;;;2.20;99.90;;;;;;4989933;28;20412;-65
2023/03/05 05:05:22;;;;;;;3.50;0.80;;;2.20;99.90;;;;;;5012029;28;20204;-64
2023/03/05 05:07:49;;;;;;;2.53;0.70;;;2.20;99.90;;;;;;5017630;28;20211;-64
2023/03/05 05:10:16;;;;;;;4.33;0.93;;;2.20;99.90;;;;;;5004645;28;20215;-64
2023/03/05 05:12:43;;;;;;;1.93;0.63;;;2.10;99.90;;;;;;5021204;28;20197;-64
2023/03/05 05:15:13;;;;;;;1.27;0.80;;;2.10;99.90;;;;;;5020924;28;20200;-64
2023/03/05 05:17:40;;;;;;;4.60;0.87;;;2.00;99.90;;;;;;4992979;28;21078;-64
2023/03/05 05:20:09;;;;;;;2.47;1.03;;;2.00;99.90;;;;;;5007840;28;20753;-64
2023/03/05 05:22:36;;;;;;;2.47;0.80;;;2.00;99.90;;;;;;5019182;28;20672;-64
2023/03/05 05:25:04;;;;;;;4.30;0.90;;;2.00;99.90;;;;;;5004512;28;20334;-65
2023/03/05 05:27:30;;;;;;;1.93;0.90;;;1.90;99.90;;;;;;5019987;28;20215;-64
2023/03/05 05:29:57;;;;;;;1.40;0.83;;;1.90;99.90;;;;;;5019684;28;20204;-64
2023/03/05 05:32:25;;;;;;;2.33;0.80;;;1.90;99.90;;;;;;4991245;28;20753;-65
2023/03/05 05:34:55;;;;;;;1.43;0.67;;;1.90;99.90;;;;;;5007915;28;20939;-64
2023/03/05 05:37:22;;;;;;;1.17;0.60;;;1.80;99.90;;;;;;5019639;28;20688;-65
2023/03/05 05:39:49;;;;;;;4.80;0.80;;;1.80;99.90;;;;;;5012447;28;20631;-65
2023/03/05 05:42:17;;;;;;;4.43;0.97;;;1.80;99.90;;;;;;5006238;28;20249;-65
2023/03/05 05:44:44;;;;;;;4.20;0.77;;;1.80;99.90;;;;;;5014833;28;20225;-64
2023/03/05 05:47:11;;;;;;;3.30;0.83;;;1.80;99.90;;;;;;5018458;28;20200;-65
2023/03/05 05:49:39;;;;;;;1.53;0.63;;;1.80;99.90;;;;;;4982559;28;20686;-65
2023/03/05 05:52:06;;;;;;;3.23;0.90;;;1.70;99.90;;;;;;5019231;28;20355;-65
2023/03/05 05:54:33;;;;;;;1.97;0.60;;;1.80;99.90;;;;;;5021182;28;20201;-65
2023/03/05 05:57:00;;;;;;;1.97;0.70;;;1.80;99.90;;;;;;4998404;28;20617;-65
2023/03/05 05:59:27;;;;;;;0.70;0.60;;;1.80;99.90;;;;;;5019251;28;20220;-64
2023/03/05 06:01:53;;;;;;;2.13;1.07;;;1.80;99.90;;;;;;5017263;28;20215;-65
2023/03/05 06:04:20;;;;;;;0.60;0.60;;;1.80;99.90;;;;;;4997649;28;20212;-65
2023/03/05 06:06:48;;;;;;;2.20;0.80;;;1.90;99.90;;;;;;4988909;28;20202;-65
2023/03/05 06:09:15;;;;;;;1.87;1.00;;;1.80;99.90;;;;;;5020459;28;20202;-64
2023/03/05 06:11:42;;;;;;;6.00;1.37;;;1.80;99.90;;;;;;5005525;28;20604;-65
2023/03/05 06:14:10;;;;;;;4.67;1.10;;;1.70;99.90;;;;;;4994771;28;20214;-65
2023/03/05 06:16:38;;;;;;;5.17;1.10;;;1.70;99.90;;;;;;5012079;28;20210;-64
2023/03/05 06:19:05;;;;;;;4.93;1.20;;;1.70;99.90;;;;;;5008101;28;20291;-65
2023/03/05 06:21:32;;;;;;;1.33;0.70;;;1.70;99.90;;;;;;4986377;28;20225;-65
2023/03/05 06:24:00;;;;;;;1.20;0.80;;;1.80;99.90;;;;;;4999750;28;20206;-65
2023/03/05 06:26:27;;;;;;;3.13;0.97;;;1.80;99.90;;;;;;5008275;28;20697;-64
2023/03/05 06:28:54;;;;;;;3.83;1.93;;;1.80;99.90;;;;;;4998123;28;20520;-65
2023/03/05 06:31:24;;;;;;;3.23;1.00;;;1.80;99.90;;;;;;5021828;28;20803;-64
2023/03/05 06:33:52;;;;;;;1.30;0.70;;;1.80;99.90;;;;;;5006688;28;20198;-65
2023/03/05 06:36:21;;;;;;;1.63;0.97;;;1.80;99.90;;;;;;4996542;28;20616;-64
2023/03/05 06:38:48;;;;;;;0.70;0.57;;;1.80;99.90;;;;;;5010294;28;20553;-65
2023/03/05 06:41:18;;;;;;;4.53;0.90;;;1.90;99.90;;;;;;5015456;28;20195;-65
2023/03/05 06:43:46;;;;;;;1.90;0.97;;;1.90;99.90;;;;;;5001636;28;20197;-65
2023/03/05 06:46:15;;;;;;;2.17;1.10;;;1.90;99.90;;;;;;5023742;28;20677;-64
2023/03/05 06:48:42;;;;;;;2.87;1.47;;;1.90;99.90;;;;;;5021554;28;20230;-65
2023/03/05 06:51:14;;;;;;;1.67;0.70;;;1.90;99.90;;;;;;4992367;28;20223;-65
2023/03/05 06:53:42;;;;;;;2.50;0.70;;;1.90;99.90;;;;;;5010666;28;20214;-65
2023/03/05 06:56:09;;;;;;;1.07;0.73;;;2.00;99.90;;;;;;5023393;28;20210;-64
2023/03/05 06:58:37;;;;;;;7.23;0.80;;;1.90;99.90;;;;;;5016823;28;20648;-66
2023/03/05 07:01:06;;;;;;;1.17;0.57;;;2.00;99.90;;;;;;5010512;28;20409;-64
2023/03/05 07:03:33;;;;;;;2.17;0.97;;;2.00;99.90;;;;;;5009398;28;20275;-64
2023/03/05 07:06:02;;;;;;;5.80;0.90;;;2.00;99.90;;;;;;5020860;28;20376;-64
2023/03/05 07:08:28;;;;;;;0.97;0.80;;;2.00;99.90;;;;;;4995189;28;20675;-64
2023/03/05 07:10:55;;;;;;;3.17;0.83;;;2.00;99.90;;;;;;5004130;28;20417;-65
2023/03/05 07:13:22;;;;;;;2.97;0.83;;;2.00;99.90;;;;;;5024211;28;20200;-65
2023/03/05 07:15:50;;;;;;;2.37;0.80;;;2.10;99.90;;;;;;4995546;28;20196;-65
2023/03/05 07:18:17;;;;;;;1.17;0.83;;;2.10;99.90;;;;;;5023164;28;20204;-65
2023/03/05 07:20:44;;;;;;;0.50;0.50;;;2.10;99.90;;;;;;5019173;28;20695;-65
2023/03/05 07:23:10;;;;;;;3.60;0.80;;;2.10;99.90;;;;;;4991444;28;20576;-65
2023/03/05 07:25:38;;;;;;;2.30;0.73;;;2.10;99.90;;;;;;5005787;28;21190;-64
2023/03/05 07:28:05;;;;;;;2.97;0.90;;;2.10;99.90;;;;;;5022073;28;20243;-64
2023/03/05 07:30:32;;;;;;;3.07;0.80;;;2.10;99.90;;;;;;5003967;28;20285;-65
2023/03/05 07:33:00;;;;;;;1.43;0.60;;;2.10;99.90;;;;;;5020196;28;20226;-65
2023/03/05 07:35:27;;;;;;;4.77;0.67;;;2.20;99.90;;;;;;5022386;28;20208;-64
2023/03/05 07:37:54;;;;;;;1.67;0.87;;;2.20;99.90;;;;;;4980021;28;20209;-65
2023/03/05 07:40:21;;;;;;;0.87;0.53;;;2.20;99.90;;;;;;5003049;28;20344;-65
2023/03/05 07:42:48;;;;;;;5.67;0.90;;;2.10;99.90;;;;;;5011914;28;20200;-64
2023/03/05 07:45:15;;;;;;;8.03;0.60;;;2.10;99.90;;;;;;4993228;28;20677;-65
2023/03/05 07:47:42;;;;;;;4.23;0.97;;;2.10;99.90;;;;;;5022780;28;20328;-65
2023/03/05 07:50:11;;;;;;;4.30;0.70;;;2.20;99.90;;;;;;5015598;28;20644;-64
2023/03/05 07:52:38;;;;;;;4.77;0.97;;;2.20;99.90;;;;;;4994416;28;20254;-65
2023/03/05 07:55:05;;;;;;;5.20;0.60;;;2.20;99.90;;;;;;5009171;28;20215;-65
2023/03/05 07:57:34;;;;;;;2.17;0.90;;;2.10;99.90;;;;;;5025252;28;20199;-65
2023/03/05 08:00:01;;;;;;;1.43;0.80;;;2.10;99.90;;;;;;5003483;28;20233;-65
2023/03/05 08:02:28;;;;;;;4.03;0.93;;;2.10;99.90;;;;;;4995155;28;20208;-65
2023/03/05 08:04:55;;;;;;;5.40;0.70;;;2.10;99.90;;;;;;5006011;28;20207;-65
2023/03/05 08:07:23;;;;;;;1.63;0.60;;;2.20;99.90;;;;;;4984389;28;20314;-65
2023/03/05 08:09:50;;;;;;;9.17;1.20;;;2.00;99.90;;;;;;4995740;28;20721;-65
2023/03/05 08:12:17;;;;;;;1.20;0.70;;;2.40;99.90;;;;;;5020411;28;20241;-65
2023/03/05 08:14:44;;;;;;;4.43;0.93;;;2.50;99.90;;;;;;4998834;28;20221;-65
2023/03/05 08:17:10;;;;;;;1.00;0.90;;;2.60;99.90;;;;;;4995131;28;20199;-65
2023/03/05 08:19:37;;;;;;;2.47;1.03;;;2.70;99.90;;;;;;5007450;28;20799;-65
2023/03/05 08:22:04;;;;;;;4.13;0.80;;;2.70;99.90;;;;;;5019529;28;20200;-65
2023/03/05 08:24:32;;;;;;;5.07;0.67;;;2.80;99.90;;;;;;4967471;28;20827;-65
2023/03/05 08:26:59;;;;;;;5.03;0.93;;;2.90;99.90;;;;;;4997651;28;20233;-65
2023/03/05 08:29:26;;;;;;;4.17;1.07;;;3.00;99.90;;;;;;4999047;28;20765;-65
2023/03/05 08:31:54;;;;;;;1.77;0.97;;;3.10;99.90;;;;;;4977308;28;20708;-65
2023/03/05 08:34:21;;;;;;;1.70;0.57;;;3.10;99.90;;;;;;4997421;28;21381;-65
2023/03/05 08:36:49;;;;;;;2.17;0.70;;;3.10;99.90;;;;;;4997345;28;20225;-65
2023/03/05 08:39:15;;;;;;;1.80;0.90;;;3.00;99.90;;;;;;4991022;28;20222;-65
2023/03/05 08:41:44;;;;;;;5.77;1.23;;;3.10;99.90;;;;;;5003066;28;20223;-65
2023/03/05 08:44:11;;;;;;;0.90;0.70;;;3.10;99.90;;;;;;4998179;28;20208;-65
2023/03/05 08:46:39;;;;;;;0.97;0.87;;;3.10;99.90;;;;;;4983062;28;20271;-65
2023/03/05 08:49:07;;;;;;;5.70;1.03;;;3.10;99.90;;;;;;5011697;28;20228;-65
2023/03/05 08:51:34;;;;;;;3.83;0.90;;;3.00;99.90;;;;;;5019011;28;20764;-65
2023/03/05 08:54:05;;;;;;;6.47;1.13;;;3.00;99.90;;;;;;4978387;28;20910;-65
2023/03/05 08:56:32;;;;;;;3.90;1.30;;;3.00;99.90;;;;;;4998478;28;20227;-64
2023/03/05 08:59:03;;;;;;;3.00;0.90;;;3.00;99.90;;;;;;5000303;28;21614;-65
2023/03/05 09:01:30;;;;;;;3.93;0.67;;;3.10;99.90;;;;;;5004106;28;20347;-65
2023/03/05 09:03:58;;;;;;;2.93;0.80;;;3.10;99.90;;;;;;4965121;28;20528;-65
2023/03/05 09:06:25;;;;;;;1.80;0.70;;;3.00;99.90;;;;;;4992148;28;21963;-64
2023/03/05 09:08:52;;;;;;;4.47;1.03;;;3.00;99.90;;;;;;4978830;28;20735;-65
2023/03/05 09:11:19;;;;;;;1.10;0.63;;;3.00;99.90;;;;;;4994302;28;20612;-65
2023/03/05 09:13:46;;;;;;;2.10;0.93;;;3.10;99.90;;;;;;5014643;28;20239;-65
2023/03/05 09:16:16;;;;;;;4.50;1.00;;;3.20;99.90;;;;;;4989235;28;20212;-64
2023/03/05 09:18:44;;;;;;;0.83;0.80;;;3.20;99.90;;;;;;4992282;28;20221;-65
2023/03/05 09:21:13;;;;;;;2.53;1.03;;;3.20;99.90;;;;;;5014063;28;20202;-65
2023/03/05 09:23:40;;;;;;;3.30;0.93;;;3.30;99.90;;;;;;4985240;28;20228;-65
2023/03/05 09:26:07;;;;;;;2.07;0.63;;;3.30;99.90;;;;;;4994757;28;20205;-65
2023/03/05 09:28:34;;;;;;;2.40;0.93;;;3.40;99.90;;;;;;4999656;28;20232;-65
2023/03/05 09:31:04;;;;;;;1.37;0.73;;;3.40;99.90;;;;;;4999029;28;20240;-65
2023/03/05 09:33:33;;;;;;;1.53;0.70;;;3.50;99.90;;;;;;4978934;28;21115;-65
2023/03/05 09:36:01;;;;;;;1.90;0.90;;;3.50;99.90;;;;;;5011500;28;20250;-65
2023/03/05 09:38:29;;;;;;;3.93;0.40;;;3.60;99.90;;;;;;4982156;28;21076;-65
2023/03/05 09:41:02;;;;;;;2.10;0.90;;;3.60;99.90;;;;;;4989567;28;20240;-65
2023/03/05 09:43:44;;;;;;;0.80;0.60;;;3.70;99.90;;;;;;4993353;28;20531;-65
2023/03/05 09:46:20;;;;;;;2.43;0.93;;;3.70;99.90;;;;;;5000597;28;20197;-65
2023/03/05 09:48:55;;;;;;;2.43;0.57;;;3.80;99.90;;;;;;4993580;28;20797;-65
2023/03/05 09:51:25;;;;;;;6.07;0.80;;;3.90;99.90;;;;;;5011826;28;20221;-65
2023/03/05 09:54:00;;;;;;;6.40;0.83;;;3.80;99.90;;;;;;4977858;28;20251;-65
2023/03/05 09:56:30;;;;;;;6.00;1.00;;;4.30;99.90;;;;;;4991110;28;20225;-65
2023/03/05 09:59:03;;;;;;;2.33;0.80;;;4.10;99.90;;;;;;5010651;28;20710;-65
2023/03/05 10:01:37;;;;;;;1.43;1.03;;;4.00;99.90;;;;;;4993598;28;20201;-65
2023/03/05 10:04:11;;;;;;;4.43;0.83;;;3.90;99.90;;;;;;4987472;28;20220;-65
2023/03/05 10:06:48;;;;;;;2.77;0.80;;;3.80;99.90;;;;;;5000825;28;20413;-65
2023/03/05 10:09:23;;;;;;;0.87;0.60;;;3.70;99.90;;;;;;4981061;28;20233;-65
2023/03/05 10:11:54;;;;;;;2.47;0.97;;;3.60;99.90;;;;;;4999520;28;20396;-65
2023/03/05 10:14:27;;;;;;;0.93;0.50;;;3.50;99.90;;;;;;4989680;28;20221;-65
2023/03/05 10:17:21;;;;;;;1.77;0.60;;;3.40;99.90;;;;;;4996831;28;20292;-65
2023/03/05 10:20:07;;;;;;;0.37;0.33;;;3.50;99.90;;;;;;4983243;28;20206;-65
2023/03/05 10:22:42;;;;;;;0.83;0.40;;;3.50;99.90;;;;;;5002267;28;20230;-65
2023/03/05 10:25:20;;;;;;;2.40;0.93;;;3.30;99.90;;;;;;4979027;28;20220;-65
2023/03/05 10:27:50;;;;;;;3.40;0.63;;;3.40;99.90;;;;;;5006806;28;20206;-65
2023/03/05 10:30:47;;;;;;;1.27;0.83;;;3.50;99.90;;;;;;5012701;28;20217;-65
2023/03/05 10:33:25;;;;;;;4.57;0.83;;;3.70;99.90;;;;;;4999874;28;20253;-65
2023/03/05 10:36:30;;;;;;;0.63;0.50;;;3.70;99.90;;;;;;4996183;28;20653;-65
2023/03/05 10:39:24;;;;;;;3.13;0.77;;;3.80;99.90;;;;;;4987676;28;20201;-65
2023/03/05 10:42:04;;;;;;;1.43;0.90;;;3.80;99.90;;;;;;4977903;28;20249;-65
2023/03/05 10:44:36;;;;;;;1.73;0.90;;;3.90;99.90;;;;;;4994109;28;20805;-65
2023/03/05 10:47:07;;;;;;;2.00;0.57;;;3.90;99.90;;;;;;4998302;28;20513;-65
2023/03/05 10:49:37;;;;;;;1.50;0.70;;;3.90;99.90;;;;;;5011088;28;20763;-65
2023/03/05 10:52:09;;;;;;;5.87;0.97;;;3.80;99.90;;;;;;4998220;28;20224;-65
2023/03/05 10:54:40;;;;;;;1.87;0.80;;;3.70;99.90;;;;;;5014810;28;20667;-65
2023/03/05 10:57:17;;;;;;;5.50;0.80;;;3.70;99.90;;;;;;4987401;28;20224;-65
2023/03/05 10:59:48;;;;;;;1.13;0.67;;;3.70;99.90;;;;;;5001781;28;20929;-65
2023/03/05 11:02:15;;;;;;;1.40;0.90;;;3.70;99.90;;;;;;5022012;28;20201;-65
2023/03/05 11:04:42;;;;;;;2.27;0.47;;;3.80;99.90;;;;;;4995470;28;20208;-65
2023/03/05 11:07:31;;;;;;;0.43;0.43;;;3.70;99.90;;;;;;4999339;28;20199;-65
2023/03/05 11:10:14;;;;;;;3.17;0.70;;;3.70;99.90;;;;;;5019805;28;20205;-65
2023/03/05 11:12:45;;;;;;;1.83;0.80;;;3.80;99.90;;;;;;4988406;28;20314;-65
2023/03/05 11:15:30;;;;;;;2.87;0.60;;;3.70;99.90;;;;;;5018097;28;20750;-65
2023/03/05 11:18:23;;;;;;;1.03;0.60;;;3.80;99.90;;;;;;5001695;28;20228;-65
2023/03/05 11:20:50;;;;;;;0.47;0.40;;;3.80;99.90;;;;;;5022129;23;20256;-64
2023/03/05 11:23:19;;;;;;;3.93;0.87;;;3.70;99.90;;;;;;4993252;28;20229;-65
2023/03/05 11:25:53;;;;;;;1.40;1.00;;;3.70;99.90;;;;;;5006240;28;20221;-65
2023/03/05 11:28:22;;;;;;;1.03;0.70;;;3.90;99.90;;;;;;4983842;28;20224;-65
2023/03/05 11:30:57;;;;;;;2.70;0.60;;;4.70;99.90;;;;;;4989710;28;20432;-65
2023/03/05 11:33:25;;;;;;;2.47;0.60;;;3.90;99.90;;;;;;5000392;28;20236;-65
2023/03/05 11:36:09;;;;;;;4.20;0.93;;;4.10;99.90;;;;;;4998237;28;20432;-65
2023/03/05 11:38:45;;;;;;;3.30;1.00;;;4.10;99.90;;;;;;4983246;28;20713;-65
2023/03/05 11:41:12;;;;;;;1.07;0.60;;;4.30;99.90;;;;;;5006319;28;20792;-65
2023/03/05 11:43:43;;;;;;;1.23;0.60;;;4.50;99.90;;;;;;4991026;28;20209;-65
2023/03/05 11:46:12;;;;;;;1.43;0.60;;;4.60;99.90;;;;;;4995346;22;20229;-65
2023/03/05 11:48:41;;;;;;;4.83;0.83;;;4.70;99.90;;;;;;4949200;28;20214;-65
2023/03/05 11:51:16;;;;;;;0.83;0.63;;;4.80;99.90;;;;;;4975433;28;20579;-65
2023/03/05 11:53:46;;;;;;;4.27;0.93;;;4.80;99.90;;;;;;4960254;28;20233;-65
2023/03/05 11:56:18;;;;;;;2.80;0.60;;;4.90;99.90;;;;;;4994869;28;20202;-65
2023/03/05 11:58:51;;;;;;;0.67;0.57;;;4.90;99.90;;;;;;4947288;28;20230;-65
2023/03/05 12:01:20;;;;;;;0.83;0.53;;;5.00;99.90;;;;;;4986199;28;20223;-65
2023/03/05 12:03:47;;;;;;;3.27;0.50;;;5.00;99.90;;;;;;4967584;28;20234;-65
2023/03/05 12:06:19;;;;;;;2.10;0.60;;;5.00;99.90;;;;;;4980239;28;20198;-65
2023/03/05 12:08:50;;;;;;;2.93;0.60;;;5.00;99.90;;;;;;4996626;28;20207;-65
2023/03/05 12:11:20;;;;;;;2.40;0.77;;;5.10;99.90;;;;;;4974864;28;20220;-64
2023/03/05 12:13:50;;;;;;;0.57;0.33;;;5.00;99.90;;;;;;4963707;28;20727;-65
2023/03/05 12:16:25;;;;;;;0.40;0.37;;;5.00;99.90;;;;;;4988434;28;20324;-65
2023/03/05 12:19:08;;;;;;;2.33;0.50;;;5.00;99.90;;;;;;4966958;28;20272;-65
2023/03/05 12:21:37;;;;;;;2.47;0.50;;;5.10;99.90;;;;;;4975192;28;20703;-65
2023/03/05 12:24:37;;;;;;;6.57;0.50;;;5.10;99.90;;;;;;4988039;28;20217;-65
2023/03/05 12:27:30;;;;;;;3.40;0.70;;;5.30;99.90;;;;;;4974868;28;20211;-65
2023/03/05 12:30:00;;;;;;;2.03;0.70;;;5.30;99.90;;;;;;4965704;28;20211;-65
2023/03/05 12:32:56;;;;;;;5.57;1.27;;;5.30;99.90;;;;;;4997060;28;20534;-65
2023/03/05 12:35:26;;;;;;;0.33;0.33;;;5.30;99.90;;;;;;4980502;28;20499;-65
2023/03/05 12:38:28;;;;;;;2.10;0.80;;;5.30;99.90;;;;;;4987477;28;21163;-65
2023/03/05 12:41:28;;;;;;;0.87;0.50;;;5.40;99.90;;;;;;4979877;28;20267;-65
2023/03/05 12:47:18;;;;;;;3.50;0.70;;;5.60;99.90;;;;;;5109891;27;21712;-64
2023/03/05 12:49:47;;;;;;;2.57;0.80;;;5.40;99.90;;;;;;5078561;27;20719;-63
2023/03/05 12:52:25;;;;;;;4.50;0.53;;;5.50;99.90;;;;;;5078880;27;20244;-63
2023/03/05 12:55:03;;;;;;;7.77;0.90;;;5.40;99.90;;;;;;5079938;27;20568;-63
2023/03/05 12:57:31;;;;;;;3.10;0.80;;;5.40;99.90;;;;;;5075273;27;20214;-64
2023/03/05 13:00:04;;;;;;;4.17;1.00;;;5.40;99.90;;;;;;5081871;27;20237;-63
2023/03/05 13:02:36;;;;;;;4.30;0.67;;;5.20;99.90;;;;;;5077495;27;20360;-63
2023/03/05 13:05:14;;;;;;;1.83;0.87;;;5.10;99.90;;;;;;5080926;27;20219;-63
2023/03/05 13:07:40;;;;;;;4.83;1.07;;;5.10;99.90;;;;;;5099670;27;20199;-63
2023/03/05 13:10:22;;;;;;;0.80;0.60;;;5.00;99.90;;;;;;5077758;27;20279;-63
2023/03/05 13:12:51;;;;;;;3.23;0.77;;;5.00;99.90;;;;;;5059593;27;22506;-64
2023/03/05 13:15:18;;;;;;;0.60;0.60;;;4.90;99.90;;;;;;5064468;27;20231;-64